Terminal Aerodrome Forecast
Issued by NWS

Current Version | Previous Version | Text Only | Print | Product List | Glossary On
Versions: 1 2 3 4 5 6 7 8 9 10 11 12 13 14 15 16
945
FTUS41 KBGM 230903 AAA
TAFITH
TAF AMD
KITH 230903Z 2309/2406 18007KT P6SM SCT050
      TEMPO 2310/2312 3SM BR SCT008
     FM231500 19011G21KT P6SM BKN040
     FM232200 24008KT P6SM BKN040
     FM240100 30004KT P6SM BKN025
     FM240300 32004KT P6SM OVC015=

USA.gov is the U.S. government's official web portal to all federal, state and local government web resources and services.